Main page
METAR-TAF:

METAR-TAF

Airports :

Goeree Le, Netherlands

Oil platform

latitude: 51-55-33N, longitude: 3-40-12E, elevation: 19 m

Current weather observation

The report was made 22 minutes ago, at 01:55 UTC
Wind 18 kt from the Northwest
Temperature 6°C
Humidity 75%
Pressure 1019 hPa
Visibility 10 km or more

METAR: EHSC 170155Z AUTO 32018KT 9999 ///////// 06/02 Q1019 W08/H18

Time: 03:17 (02:17 UTC)


TAF: missing

Weather observations and forecasts of more than 4000 airports (METAR and TAF reports).

The available stations are represented by yellow and red dots on the map.

Hover mouse over dot to see the name of the station.

Then click to see weather observations and forecasts.

To change the map : click on the green buttons with a black cross to zoom in, on the green button with a dash to zoom out, or on the green arrows for adjacent maps.


METAR-TAF: